createdAt,value
2022-11-25T00:01:55.382Z,6.95
2022-11-25T00:04:29.128Z,7.45
2022-11-25T00:07:07.332Z,6.55
2022-11-25T00:09:39.426Z,6.30
2022-11-25T00:12:11.408Z,6.10
2022-11-25T00:14:43.341Z,6.18
2022-11-25T00:17:15.456Z,5.40
2022-11-25T00:19:48.969Z,6.95
2022-11-25T00:22:21.835Z,6.35
2022-11-25T00:24:54.122Z,5.90
2022-11-25T00:27:26.196Z,6.70
2022-11-25T00:29:58.250Z,5.57
2022-11-25T00:32:30.280Z,6.20
2022-11-25T00:35:02.550Z,6.45
2022-11-25T00:37:34.942Z,6.32
2022-11-25T00:40:07.546Z,6.10
2022-11-25T00:42:58.452Z,6.70
2022-11-25T00:45:50.296Z,6.70
2022-11-25T00:48:22.669Z,6.50
2022-11-25T00:50:54.659Z,5.57
2022-11-25T00:53:26.598Z,6.80
2022-11-25T00:56:14.805Z,6.30
2022-11-25T00:58:47.547Z,7.68
2022-11-25T01:01:20.502Z,5.78
2022-11-25T01:03:53.894Z,6.45
2022-11-25T01:06:26.138Z,6.70
2022-11-25T01:08:58.354Z,6.55
2022-11-25T01:11:30.765Z,8.00
2022-11-25T01:14:03.605Z,7.20
2022-11-25T01:16:36.244Z,8.32
2022-11-25T01:19:08.537Z,8.45
2022-11-25T01:21:42.440Z,7.28
2022-11-25T01:24:24.151Z,8.50
2022-11-25T01:26:57.129Z,8.55
2022-11-25T01:29:29.171Z,10.00
2022-11-25T01:32:01.381Z,8.05
2022-11-25T01:34:34.729Z,8.05
2022-11-25T01:37:07.855Z,8.50
2022-11-25T01:39:39.919Z,8.85
2022-11-25T01:42:11.820Z,8.73
2022-11-25T01:44:43.884Z,9.00
2022-11-25T01:47:35.632Z,8.45
2022-11-25T01:50:11.874Z,8.32
2022-11-25T01:52:50.492Z,8.65
2022-11-25T01:55:32.074Z,8.52
2022-11-25T01:58:36.104Z,8.10
2022-11-25T02:01:09.045Z,7.15
2022-11-25T02:03:44.364Z,6.90
2022-11-25T02:06:25.911Z,8.05
2022-11-25T02:09:08.879Z,7.90
2022-11-25T02:11:44.074Z,7.90
2022-11-25T02:14:19.764Z,7.40
2022-11-25T02:16:53.158Z,7.50
2022-11-25T02:19:42.276Z,8.50
2022-11-25T02:22:55.868Z,8.20
2022-11-25T02:25:48.012Z,7.80
2022-11-25T02:28:23.468Z,7.70
2022-11-25T02:30:58.689Z,7.25
2022-11-25T02:33:30.947Z,8.02
2022-11-25T02:36:15.849Z,8.25
2022-11-25T02:38:56.792Z,9.05
2022-11-25T02:41:30.123Z,8.43
2022-11-25T02:44:06.665Z,9.45
2022-11-25T02:46:39.029Z,9.07
2022-11-25T02:49:11.263Z,9.50
2022-11-25T02:51:45.269Z,8.15
2022-11-25T02:54:37.243Z,8.70
2022-11-25T02:57:09.637Z,9.30
2022-11-25T02:59:41.551Z,9.43
2022-11-25T03:02:13.687Z,9.20
2022-11-25T03:04:46.385Z,9.25
2022-11-25T03:07:18.497Z,9.25
2022-11-25T03:09:50.531Z,9.02
2022-11-25T03:12:22.625Z,8.90
2022-11-25T03:14:54.687Z,8.50
2022-11-25T03:17:26.766Z,7.93
2022-11-25T03:19:59.400Z,8.63
2022-11-25T03:22:31.445Z,8.65
2022-11-25T03:25:03.677Z,7.78
2022-11-25T03:27:37.137Z,8.05
2022-11-25T03:30:14.664Z,9.90
2022-11-25T03:32:50.115Z,10.23
2022-11-25T03:35:23.331Z,9.65
2022-11-25T03:37:55.606Z,9.25
2022-11-25T03:40:27.527Z,9.20
2022-11-25T03:42:59.479Z,8.82
2022-11-25T03:45:31.746Z,9.70
2022-11-25T03:48:04.949Z,8.80
2022-11-25T03:50:36.890Z,9.07
2022-11-25T03:53:09.016Z,9.13
2022-11-25T03:55:40.956Z,9.00
2022-11-25T03:58:12.929Z,9.32
2022-11-25T04:00:44.818Z,8.40
2022-11-25T04:03:16.808Z,8.50
2022-11-25T04:05:48.787Z,8.88
2022-11-25T04:08:21.740Z,9.55
2022-11-25T04:10:54.884Z,9.55
2022-11-25T04:13:26.895Z,8.93
2022-11-25T04:15:59.282Z,9.63
2022-11-25T04:18:31.324Z,8.70
2022-11-25T04:21:03.501Z,8.77
2022-11-25T04:23:35.644Z,8.93
2022-11-25T04:26:07.635Z,9.13
2022-11-25T04:28:39.670Z,9.73
2022-11-25T04:31:11.832Z,9.45
2022-11-25T04:33:46.041Z,8.63
2022-11-25T04:36:21.864Z,8.60
2022-11-25T04:38:54.744Z,7.72
2022-11-25T04:41:26.870Z,8.52
2022-11-25T04:44:01.616Z,8.50
2022-11-25T04:46:39.585Z,8.52
2022-11-25T04:49:12.921Z,7.95
2022-11-25T04:51:44.934Z,7.50
2022-11-25T04:54:17.640Z,8.23
2022-11-25T04:56:49.816Z,8.30
2022-11-25T04:59:40.030Z,8.57
2022-11-25T05:02:15.153Z,8.40
2022-11-25T05:04:51.709Z,7.82
2022-11-25T05:07:27.947Z,8.50
2022-11-25T05:10:00.098Z,11.25
2022-11-25T05:12:32.361Z,15.20
2022-11-25T05:15:06.451Z,10.02
2022-11-25T05:17:39.826Z,7.55
2022-11-25T05:20:12.207Z,8.00
2022-11-25T05:22:44.190Z,8.00
2022-11-25T05:25:16.691Z,8.52
2022-11-25T05:27:48.746Z,9.30
2022-11-25T05:30:20.717Z,9.15
2022-11-25T05:32:53.251Z,9.68
2022-11-25T05:35:25.484Z,8.77
2022-11-25T05:37:57.594Z,9.50
2022-11-25T05:40:32.178Z,8.95
2022-11-25T05:43:04.447Z,8.50
2022-11-25T05:45:39.359Z,7.90
2022-11-25T05:48:12.018Z,8.55
2022-11-25T05:50:44.153Z,7.82
2022-11-25T05:53:17.515Z,7.97
2022-11-25T05:55:57.711Z,7.63
2022-11-25T05:58:33.613Z,7.70
2022-11-25T06:01:13.697Z,7.38
2022-11-25T06:03:47.603Z,7.95
2022-11-25T06:06:20.356Z,8.68
2022-11-25T06:08:52.724Z,8.77
2022-11-25T06:11:25.688Z,8.55
2022-11-25T06:13:58.636Z,9.25
2022-11-25T06:16:30.725Z,7.55
2022-11-25T06:19:05.687Z,7.90
2022-11-25T06:21:37.921Z,8.77
2022-11-25T06:24:09.937Z,8.43
2022-11-25T06:26:42.205Z,9.35
2022-11-25T06:29:14.345Z,8.60
2022-11-25T06:31:46.318Z,8.30
2022-11-25T06:34:20.271Z,8.85
2022-11-25T06:36:52.393Z,9.25
2022-11-25T06:39:24.934Z,8.30
2022-11-25T06:41:56.803Z,9.15
2022-11-25T06:44:28.714Z,8.73
2022-11-25T06:47:00.555Z,8.70
2022-11-25T06:49:32.537Z,10.07
2022-11-25T06:52:04.635Z,10.15
2022-11-25T06:54:41.101Z,10.57
2022-11-25T06:57:17.614Z,9.65
2022-11-25T06:59:51.306Z,9.57
2022-11-25T07:02:23.395Z,8.85
2022-11-25T07:04:55.416Z,9.00
2022-11-25T07:07:27.872Z,9.45
2022-11-25T07:09:59.964Z,10.18
2022-11-25T07:12:32.152Z,9.57
2022-11-25T07:15:04.450Z,9.95
2022-11-25T07:17:36.898Z,9.50
2022-11-25T07:20:09.417Z,9.90
2022-11-25T07:22:42.576Z,9.32
2022-11-25T07:25:14.637Z,9.77
2022-11-25T07:27:46.864Z,9.77
2022-11-25T07:31:09.755Z,9.13
2022-11-25T07:33:11.030Z,9.20
2022-11-25T07:35:43.503Z,9.75
2022-11-25T07:38:16.633Z,9.82
2022-11-25T07:40:50.581Z,8.95
2022-11-25T07:43:22.660Z,8.77
2022-11-25T07:45:55.306Z,8.93
2022-11-25T07:48:28.888Z,9.20
2022-11-25T07:51:01.203Z,9.93
2022-11-25T07:53:33.869Z,9.15
2022-11-25T07:56:06.483Z,8.95
2022-11-25T07:58:44.389Z,8.05
2022-11-25T08:01:19.787Z,8.50
2022-11-25T08:03:53.896Z,8.57
2022-11-25T08:06:29.244Z,8.85
2022-11-25T08:09:02.211Z,8.27
2022-11-25T08:11:35.219Z,8.50
2022-11-25T08:14:08.709Z,9.30
2022-11-25T08:16:42.144Z,9.68
2022-11-25T08:19:17.997Z,9.23
2022-11-25T08:21:51.276Z,8.55
2022-11-25T08:24:23.982Z,9.20
2022-11-25T08:26:58.941Z,8.48
2022-11-25T08:29:33.035Z,9.75
2022-11-25T08:32:11.781Z,8.85
2022-11-25T08:34:44.666Z,8.57
2022-11-25T08:37:17.529Z,9.02
2022-11-25T08:39:53.275Z,9.57
2022-11-25T08:42:27.006Z,10.65
2022-11-25T08:44:59.411Z,9.50
2022-11-25T08:47:32.845Z,9.45
2022-11-25T08:50:10.663Z,9.85
2022-11-25T08:52:45.790Z,9.82
2022-11-25T08:55:18.152Z,9.23
2022-11-25T08:57:50.477Z,9.55
2022-11-25T09:00:23.464Z,9.93
2022-11-25T09:02:56.865Z,10.70
2022-11-25T09:05:35.803Z,10.57
2022-11-25T09:08:13.908Z,9.00
2022-11-25T09:10:46.615Z,10.40
2022-11-25T09:13:19.231Z,9.60
2022-11-25T09:15:51.690Z,10.30
2022-11-25T09:18:26.551Z,14.00
2022-11-25T09:21:12.121Z,10.40
2022-11-25T09:23:49.968Z,9.30
2022-11-25T09:26:26.262Z,8.50
2022-11-25T09:29:01.801Z,8.55
2022-11-25T09:31:35.920Z,10.30
2022-11-25T09:34:10.207Z,9.68
2022-11-25T09:36:44.659Z,9.18
2022-11-25T09:39:17.297Z,8.80
2022-11-25T09:42:46.807Z,10.10
2022-11-25T09:46:09.368Z,8.98
2022-11-25T09:49:20.009Z,8.70
2022-11-25T09:52:11.907Z,8.48
2022-11-25T09:55:14.313Z,8.55
2022-11-25T09:58:12.209Z,8.43
2022-11-25T10:01:15.435Z,8.00
2022-11-25T10:03:56.900Z,7.00
2022-11-25T10:06:54.926Z,7.68
2022-11-25T10:09:35.640Z,7.60
2022-11-25T10:12:28.125Z,9.77
2022-11-25T10:15:14.224Z,10.40
2022-11-25T10:17:57.758Z,10.48
2022-11-25T10:20:39.299Z,10.45
2022-11-25T10:23:27.858Z,9.43
2022-11-25T10:26:15.390Z,9.75
2022-11-25T10:29:17.947Z,9.48
2022-11-25T10:32:11.056Z,9.50
2022-11-25T10:35:12.252Z,9.00
2022-11-25T10:37:58.767Z,8.98
2022-11-25T10:40:34.546Z,8.82
2022-11-25T10:43:16.201Z,8.52
2022-11-25T10:46:08.887Z,8.35
2022-11-25T10:49:15.421Z,8.45
2022-11-25T10:51:59.861Z,8.18
2022-11-25T10:54:35.303Z,8.57
2022-11-25T10:57:29.072Z,8.70
2022-11-25T11:00:01.933Z,8.45
2022-11-25T11:02:39.854Z,9.57
2022-11-25T11:05:12.748Z,9.18
2022-11-25T11:08:10.520Z,8.52
2022-11-25T11:11:28.346Z,7.90
2022-11-25T11:14:19.152Z,7.68
2022-11-25T11:16:55.699Z,6.88
2022-11-25T11:19:31.119Z,5.53
2022-11-25T11:22:18.227Z,6.40
2022-11-25T11:25:27.660Z,4.82
2022-11-25T11:28:23.956Z,4.40
2022-11-25T11:31:26.539Z,3.33
2022-11-25T11:34:37.681Z,3.95
2022-11-25T11:37:46.221Z,3.50
2022-11-25T11:40:46.625Z,3.60
2022-11-25T11:43:27.637Z,3.85
2022-11-25T11:46:50.496Z,3.05
2022-11-25T11:50:09.416Z,3.70
2022-11-25T11:53:38.900Z,3.45
2022-11-25T11:56:55.399Z,4.15
2022-11-25T11:59:53.481Z,4.18
2022-11-25T12:02:41.251Z,3.80
2022-11-25T12:05:37.474Z,4.05
2022-11-25T12:08:38.346Z,3.15
2022-11-25T12:11:25.887Z,4.40
2022-11-25T12:14:26.793Z,3.40
2022-11-25T12:17:19.288Z,3.25
2022-11-25T12:20:37.068Z,3.58
2022-11-25T12:23:46.324Z,3.50
2022-11-25T12:26:51.453Z,3.67
2022-11-25T12:29:44.238Z,4.28
2022-11-25T12:32:38.911Z,3.90
2022-11-25T12:35:58.868Z,3.83
2022-11-25T12:38:57.149Z,4.15
2022-11-25T12:41:53.595Z,4.07
2022-11-25T12:44:36.560Z,3.45
2022-11-25T12:47:28.972Z,4.57
2022-11-25T12:50:02.264Z,3.83
2022-11-25T12:53:00.030Z,3.58
2022-11-25T12:55:53.814Z,4.00
2022-11-25T12:58:35.369Z,4.40
2022-11-25T13:01:25.528Z,4.28
2022-11-25T13:04:45.113Z,3.65
2022-11-25T13:08:17.429Z,4.68
2022-11-25T13:11:46.921Z,4.50
2022-11-25T13:15:00.964Z,5.38
2022-11-25T13:18:02.107Z,6.25
2022-11-25T13:20:45.483Z,6.43
2022-11-25T13:23:22.601Z,5.70
2022-11-25T13:26:44.184Z,6.75
2022-11-25T13:29:19.149Z,5.55
2022-11-25T13:32:35.399Z,5.90
2022-11-25T13:35:27.221Z,5.40
2022-11-25T13:38:08.448Z,6.72
2022-11-25T13:41:03.675Z,5.28
2022-11-25T13:44:15.034Z,6.22
2022-11-25T13:46:58.540Z,6.35
2022-11-25T13:49:55.511Z,5.30
2022-11-25T13:52:45.504Z,6.60
2022-11-25T13:55:20.831Z,4.40
2022-11-25T13:58:20.984Z,3.25
2022-11-25T14:01:06.354Z,3.10
2022-11-25T14:03:57.873Z,3.72
2022-11-25T14:06:59.241Z,15.50
2022-11-25T14:09:55.021Z,6.43
2022-11-25T14:12:50.351Z,4.75
2022-11-25T14:15:53.221Z,9.23
2022-11-25T14:19:43.263Z,8.50
2022-11-25T14:22:35.871Z,6.68
2022-11-25T14:25:33.339Z,4.38
2022-11-25T14:28:27.698Z,4.32
2022-11-25T14:31:14.900Z,4.05
2022-11-25T14:34:04.409Z,3.85
2022-11-25T14:36:51.605Z,5.00
2022-11-25T14:40:10.969Z,3.30
2022-11-25T14:42:59.582Z,3.72
2022-11-25T14:45:45.674Z,4.20
2022-11-25T14:48:22.989Z,3.42
2022-11-25T14:51:04.471Z,4.00
2022-11-25T14:53:48.442Z,4.05
2022-11-25T14:56:26.582Z,4.35
2022-11-25T14:59:02.424Z,3.20
2022-11-25T15:01:36.852Z,2.97
2022-11-25T15:04:17.819Z,2.95
2022-11-25T15:07:01.062Z,3.55
2022-11-25T15:09:50.002Z,3.00
2022-11-25T15:12:25.104Z,3.47
2022-11-25T15:15:03.030Z,2.58
2022-11-25T15:17:39.754Z,3.30
2022-11-25T15:20:20.199Z,3.35
2022-11-25T15:22:55.370Z,4.30
2022-11-25T15:25:28.004Z,3.30
2022-11-25T15:28:00.866Z,2.70
2022-11-25T15:31:00.926Z,2.60
2022-11-25T15:33:41.535Z,3.33
2022-11-25T15:36:14.844Z,5.00
2022-11-25T15:38:47.608Z,3.42
2022-11-25T15:41:30.487Z,3.00
2022-11-25T15:44:06.813Z,4.07
2022-11-25T15:47:15.313Z,2.80
2022-11-25T15:50:23.872Z,3.30
2022-11-25T15:53:00.500Z,3.63
2022-11-25T15:55:39.852Z,3.72
2022-11-25T15:58:21.927Z,3.45
2022-11-25T16:01:05.804Z,3.20
2022-11-25T16:03:52.397Z,3.80
2022-11-25T16:07:00.305Z,3.35
2022-11-25T16:09:34.894Z,3.08
2022-11-25T16:12:17.448Z,3.30
2022-11-25T16:14:50.230Z,3.40
2022-11-25T16:17:22.461Z,3.60
2022-11-25T16:19:54.568Z,3.00
2022-11-25T16:22:28.981Z,3.55
2022-11-25T16:25:02.906Z,3.78
2022-11-25T16:27:41.543Z,3.17
2022-11-25T16:30:20.043Z,3.85
2022-11-25T16:32:52.840Z,3.30
2022-11-25T16:35:25.435Z,3.70
2022-11-25T16:37:58.958Z,3.50
2022-11-25T16:40:32.238Z,3.10
2022-11-25T16:43:22.640Z,3.47
2022-11-25T16:45:59.026Z,3.05
2022-11-25T16:48:32.094Z,3.75
2022-11-25T16:51:29.337Z,4.25
2022-11-25T16:54:01.633Z,4.90
2022-11-25T16:56:37.636Z,3.20
2022-11-25T16:59:35.279Z,3.42
2022-11-25T17:02:21.945Z,5.25
2022-11-25T17:04:54.481Z,3.38
2022-11-25T17:07:35.755Z,3.35
2022-11-25T17:10:09.761Z,2.90
2022-11-25T17:12:45.293Z,3.40
2022-11-25T17:15:27.815Z,3.55
2022-11-25T17:18:07.114Z,3.50
2022-11-25T17:20:43.821Z,3.42
2022-11-25T17:23:17.675Z,3.75
2022-11-25T17:25:50.413Z,3.88
2022-11-25T17:28:22.725Z,4.60
2022-11-25T17:30:57.534Z,3.85
2022-11-25T17:33:30.633Z,4.40
2022-11-25T17:36:05.663Z,3.20
2022-11-25T17:38:41.885Z,4.13
2022-11-25T17:41:15.689Z,4.47
2022-11-25T17:43:52.025Z,4.45
2022-11-25T17:46:29.709Z,4.65
2022-11-25T17:49:02.948Z,4.32
2022-11-25T17:51:37.458Z,5.65
2022-11-25T17:54:11.525Z,5.90
2022-11-25T17:56:51.850Z,4.22
2022-11-25T17:59:28.559Z,5.85
2022-11-25T18:02:03.094Z,4.78
2022-11-25T18:04:47.705Z,4.68
2022-11-25T18:07:20.061Z,4.57
2022-11-25T18:09:53.487Z,4.85
2022-11-25T18:12:30.899Z,6.25
2022-11-25T18:15:11.027Z,4.95
2022-11-25T18:17:51.340Z,4.10
2022-11-25T18:20:34.892Z,4.88
2022-11-25T18:23:10.044Z,4.75
2022-11-25T18:25:44.617Z,4.43
2022-11-25T18:28:20.801Z,5.05
2022-11-25T18:31:00.118Z,5.75
2022-11-25T18:33:35.703Z,8.20
2022-11-25T18:36:14.098Z,6.88
2022-11-25T18:38:48.785Z,5.30
2022-11-25T18:41:23.930Z,6.50
2022-11-25T18:44:01.069Z,5.03
2022-11-25T18:46:40.912Z,5.85
2022-11-25T18:49:14.980Z,4.30
2022-11-25T18:51:48.892Z,5.65
2022-11-25T18:54:21.645Z,5.22
2022-11-25T18:56:55.441Z,6.50
2022-11-25T18:59:34.816Z,7.35
2022-11-25T19:02:19.082Z,8.82
2022-11-25T19:04:51.618Z,8.77
2022-11-25T19:07:25.385Z,8.60
2022-11-25T19:09:58.463Z,7.32
2022-11-25T19:12:31.790Z,7.78
2022-11-25T19:15:06.508Z,8.15
2022-11-25T19:17:45.144Z,6.15
2022-11-25T19:20:23.094Z,6.78
2022-11-25T19:23:01.233Z,4.65
2022-11-25T19:25:50.059Z,4.93
2022-11-25T19:28:27.342Z,4.85
2022-11-25T19:31:04.618Z,4.68
2022-11-25T19:33:40.305Z,5.40
2022-11-25T19:36:24.910Z,5.30
2022-11-25T19:38:59.142Z,5.20
2022-11-25T19:41:31.697Z,5.05
2022-11-25T19:44:04.140Z,5.20
2022-11-25T19:47:12.999Z,5.70
2022-11-25T19:49:35.518Z,4.53
2022-11-25T19:52:19.763Z,4.75
2022-11-25T19:54:54.847Z,3.88
2022-11-25T19:57:28.719Z,4.50
2022-11-25T20:00:01.225Z,4.18
2022-11-25T20:02:34.143Z,4.70
2022-11-25T20:05:08.876Z,3.92
2022-11-25T20:07:50.916Z,5.22
2022-11-25T20:10:27.149Z,4.47
2022-11-25T20:13:01.064Z,4.90
2022-11-25T20:15:34.139Z,4.18
2022-11-25T20:18:18.348Z,4.07
2022-11-25T20:21:04.195Z,4.00
2022-11-25T20:23:45.046Z,4.43
2022-11-25T20:26:31.743Z,3.80
2022-11-25T20:29:21.915Z,3.83
2022-11-25T20:31:58.156Z,3.65
2022-11-25T20:34:36.172Z,3.22
2022-11-25T20:37:16.150Z,3.50
2022-11-25T20:40:00.936Z,4.38
2022-11-25T20:42:33.416Z,3.55
2022-11-25T20:45:13.378Z,4.47
2022-11-25T20:47:53.305Z,4.78
2022-11-25T20:50:30.957Z,3.95
2022-11-25T20:53:08.222Z,5.18
2022-11-25T20:56:02.498Z,5.35
2022-11-25T20:58:38.162Z,7.60
2022-11-25T21:01:11.495Z,4.90
2022-11-25T21:03:49.699Z,5.47
2022-11-25T21:06:32.700Z,7.68
2022-11-25T21:09:16.593Z,8.05
2022-11-25T21:11:53.140Z,5.53
2022-11-25T21:14:35.176Z,5.30
2022-11-25T21:17:08.821Z,5.20
2022-11-25T21:19:42.617Z,5.75
2022-11-25T21:22:16.416Z,6.60
2022-11-25T21:24:54.931Z,5.95
2022-11-25T21:27:29.804Z,5.90
2022-11-25T21:30:02.861Z,5.63
2022-11-25T21:32:35.613Z,5.25
2022-11-25T21:35:10.779Z,5.63
2022-11-25T21:37:45.380Z,4.65
2022-11-25T21:40:27.191Z,4.55
2022-11-25T21:43:21.972Z,5.53
2022-11-25T21:46:07.406Z,8.55
2022-11-25T21:48:45.575Z,4.30
2022-11-25T21:51:25.217Z,4.22
2022-11-25T21:53:57.559Z,4.35
2022-11-25T21:56:34.591Z,6.22
2022-11-25T21:59:08.416Z,4.20
2022-11-25T22:01:49.451Z,3.83
2022-11-25T22:04:24.775Z,3.90
2022-11-25T22:06:56.752Z,4.30
2022-11-25T22:09:32.024Z,4.03
2022-11-25T22:12:05.825Z,4.65
2022-11-25T22:14:54.830Z,3.85
2022-11-25T22:17:30.336Z,3.80
2022-11-25T22:20:03.956Z,7.72
2022-11-25T22:22:48.299Z,4.57
2022-11-25T22:25:20.610Z,4.38
2022-11-25T22:27:54.221Z,4.30
2022-11-25T22:30:26.606Z,3.50
2022-11-25T22:33:02.636Z,3.63
2022-11-25T22:35:35.179Z,5.20
2022-11-25T22:38:15.246Z,3.65
2022-11-25T22:40:54.584Z,5.28
2022-11-25T22:43:38.554Z,4.30
2022-11-25T22:46:15.542Z,4.00
2022-11-25T22:48:48.296Z,5.18
2022-11-25T22:51:26.331Z,4.35
2022-11-25T22:53:58.887Z,4.00
2022-11-25T22:56:30.806Z,4.85
2022-11-25T22:59:02.737Z,4.15
2022-11-25T23:01:34.743Z,4.43
2022-11-25T23:04:13.708Z,3.92
2022-11-25T23:06:49.462Z,4.20
2022-11-25T23:09:22.093Z,4.28
2022-11-25T23:11:54.863Z,4.82
2022-11-25T23:14:27.056Z,3.72
2022-11-25T23:16:59.353Z,4.43
2022-11-25T23:19:31.622Z,4.22
2022-11-25T23:22:10.079Z,4.57
2022-11-25T23:24:47.632Z,4.15
2022-11-25T23:27:20.368Z,4.00
2022-11-25T23:29:52.493Z,4.30
2022-11-25T23:32:24.404Z,4.32
2022-11-25T23:34:56.474Z,5.72
2022-11-25T23:37:28.763Z,5.57
2022-11-25T23:40:00.860Z,6.45
2022-11-25T23:42:34.662Z,8.80
2022-11-25T23:45:09.617Z,6.15
2022-11-25T23:47:52.879Z,5.18
2022-11-25T23:50:30.747Z,5.32
2022-11-25T23:53:11.779Z,5.60
2022-11-25T23:55:52.517Z,5.53
2022-11-25T23:58:24.735Z,5.15
